Time;durP1;ratioP1;P1;durP2;ratioP2;P2;SDS_P1;SDS_P2;PMS_P1;PMS_P2;Temp;Humidity;BMP_temperature;BMP_pressure;BME280_temperature;BME280_humidity;BME280_pressure;Samples;Min_cycle;Max_cycle;Signal;HPM_P1;HPM_P2
2024/03/30 00:02:03;;;;;;;3.23;3.00;;;;;;;;;;6165335;23;20386;-86
2024/03/30 00:05:04;;;;;;;3.40;3.10;;;;;;;;;;6171599;23;20455;-87
2024/03/30 00:07:50;;;;;;;;;;;;;;;;;;;;;
2024/03/30 00:10:45;;;;;;;3.87;3.20;;;;;;;;;;6155290;23;20422;-88
2024/03/30 00:19:48;;;;;;;4.40;4.00;;;;;;;;;;6187424;23;20421;-84
2024/03/30 00:34:54;;;;;;;;;;;;;;;;;;;;;
2024/03/30 00:37:42;;;;;;;3.53;3.20;;;;;;;;;;6101960;23;20400;-85
2024/03/30 00:43:53;;;;;;;4.17;3.37;;;;;;;;;;6058802;23;20477;-87
2024/03/30 00:46:32;;;;;;;3.67;3.37;;;;;;;;;;6018589;23;20807;-85
2024/03/30 00:49:18;;;;;;;4.80;3.80;;;;;;;;;;6089392;23;20785;-86
2024/03/30 00:52:08;;;;;;;4.43;4.03;;;;;;;;;;6111592;23;20392;-86
2024/03/30 00:54:38;;;;;;;4.60;3.83;;;;;;;;;;6109003;23;20404;-88
2024/03/30 00:57:11;;;;;;;4.67;4.27;;;;;;;;;;6088262;23;20461;-87
2024/03/30 00:59:45;;;;;;;4.20;3.77;;;;;;;;;;6112321;23;21059;-87
2024/03/30 01:02:30;;;;;;;3.27;3.07;;;;;;;;;;6090551;23;20408;-85
2024/03/30 01:05:03;;;;;;;3.60;3.30;;;;;;;;;;6080059;23;20444;-86
2024/03/30 01:07:50;;;;;;;3.60;3.30;;;;;;;;;;6084364;23;20396;-87
2024/03/30 01:10:23;;;;;;;3.60;3.17;;;;;;;;;;6080550;23;21439;-87
2024/03/30 01:15:50;;;;;;;4.70;3.83;;;;;;;;;;6087561;23;20778;-85
2024/03/30 01:18:28;;;;;;;3.60;3.30;;;;;;;;;;6091278;23;20443;-84
2024/03/30 01:21:08;;;;;;;3.37;3.17;;;;;;;;;;6085983;23;20424;-86
2024/03/30 01:23:47;;;;;;;3.13;2.70;;;;;;;;;;6105359;23;20740;-86
2024/03/30 01:26:47;;;;;;;3.97;3.57;;;;;;;;;;6094366;23;20475;-85
2024/03/30 01:29:46;;;;;;;;;;;;;;;;;;;;;
2024/03/30 01:35:59;;;;;;;2.63;2.43;;;;;;;;;;6002548;23;20555;-86
2024/03/30 01:38:31;;;;;;;2.63;2.43;;;;;;;;;;6027664;23;20410;-87
2024/03/30 01:41:16;;;;;;;2.87;2.67;;;;;;;;;;6049190;23;20421;-86
2024/03/30 01:43:46;;;;;;;3.50;3.20;;;;;;;;;;6059285;23;20573;-87
2024/03/30 01:46:31;;;;;;;;;;;;;;;;;;;;;
2024/03/30 01:49:21;;;;;;;3.10;2.80;;;;;;;;;;6048451;23;20824;-88
2024/03/30 01:51:50;;;;;;;3.47;3.17;;;;;;;;;;6036479;23;20412;-85
2024/03/30 01:54:20;;;;;;;3.57;3.30;;;;;;;;;;6042113;23;20435;-87
2024/03/30 01:57:13;;;;;;;;;;;;;;;;;;;;;
2024/03/30 01:59:40;;;;;;;7.93;3.00;;;;;;;;;;6106460;23;20430;-84
2024/03/30 02:02:23;;;;;;;3.63;3.30;;;;;;;;;;6089724;23;20409;-86
2024/03/30 02:08:46;;;;;;;6.43;3.50;;;12.40;99.90;;;;;;6144698;23;20423;-86
2024/03/30 02:14:32;;;;;;;5.70;4.23;;;12.10;99.90;;;;;;6090304;23;20784;-83
2024/03/30 02:17:33;;;;;;;4.60;4.20;;;12.30;99.90;;;;;;6108333;23;20391;-86
2024/03/30 02:20:14;;;;;;;3.70;3.30;;;12.30;99.90;;;;;;6040902;23;20810;-85
2024/03/30 02:23:24;;;;;;;5.37;4.53;;;12.30;99.90;;;;;;6109313;23;20434;-84
2024/03/30 02:26:35;;;;;;;4.10;3.77;;;12.20;99.90;;;;;;5983125;23;20452;-87
2024/03/30 02:33:26;;;;;;;4.90;4.40;;;12.40;99.90;;;;;;5993368;23;20427;-83
2024/03/30 02:36:14;;;;;;;5.07;4.67;;;12.20;99.90;;;;;;5949778;23;20407;-84
2024/03/30 02:39:26;;;;;;;5.03;4.50;;;12.00;99.90;;;;;;6084650;23;20442;-86
2024/03/30 02:42:07;;;;;;;4.93;4.53;;;12.10;99.90;;;;;;6093220;23;20412;-86
2024/03/30 02:44:58;;;;;;;4.97;4.57;;;12.20;99.90;;;;;;6116885;23;20423;-85
2024/03/30 02:47:29;;;;;;;6.67;4.60;;;12.20;99.90;;;;;;6097920;23;20471;-87
2024/03/30 02:50:11;;;;;;;4.87;4.40;;;12.10;99.90;;;;;;6080587;23;20493;-86
2024/03/30 02:56:51;;;;;;;5.67;4.70;;;12.10;99.90;;;;;;6123570;23;20398;-87
2024/03/30 02:59:23;;;;;;;5.03;4.53;;;12.20;99.90;;;;;;6096787;23;20498;-87
2024/03/30 03:01:52;;;;;;;6.43;5.37;;;12.20;99.90;;;;;;6096063;23;20505;-87
2024/03/30 03:04:33;;;;;;;5.97;4.70;;;12.00;99.90;;;;;;6113143;23;20453;-86
2024/03/30 03:07:08;;;;;;;5.60;5.10;;;11.80;99.90;;;;;;6146707;23;20628;-86
2024/03/30 03:09:57;;;;;;;5.10;4.50;;;11.90;99.90;;;;;;6148336;23;20431;-85
2024/03/30 03:12:33;;;;;;;4.43;4.10;;;11.90;99.90;;;;;;6118494;23;20391;-87
2024/03/30 03:15:30;;;;;;;4.93;4.50;;;11.70;99.90;;;;;;6112341;23;20417;-85
2024/03/30 03:17:57;;;;;;;4.33;3.93;;;11.60;99.90;;;;;;6158671;23;20403;-87
2024/03/30 03:20:49;;;;;;;5.30;4.80;;;11.80;99.90;;;;;;6109900;23;20423;-87
2024/03/30 03:23:16;;;;;;;4.50;4.10;;;11.80;99.90;;;;;;5993994;23;20411;-87
2024/03/30 03:28:58;;;;;;;5.00;4.57;;;11.90;99.90;;;;;;6140543;23;20454;-86
2024/03/30 03:31:39;;;;;;;5.20;4.70;;;11.80;99.90;;;;;;6102724;23;20407;-85
2024/03/30 03:34:14;;;;;;;4.73;4.33;;;11.90;99.90;;;;;;6102568;23;20831;-87
2024/03/30 03:36:55;;;;;;;5.83;5.17;;;11.90;99.90;;;;;;6103432;23;20780;-85
2024/03/30 03:39:59;;;;;;;4.70;4.30;;;11.70;99.90;;;;;;6106326;23;20430;-85
2024/03/30 03:42:44;;;;;;;4.93;4.53;;;11.90;99.90;;;;;;6113852;23;20424;-85
2024/03/30 03:45:15;;;;;;;5.87;5.27;;;11.90;99.90;;;;;;6121793;23;20452;-87
2024/03/30 03:48:23;;;;;;;5.80;4.97;;;12.10;99.90;;;;;;6129225;23;20462;-84
2024/03/30 03:50:57;;;;;;;5.23;4.37;;;12.00;99.90;;;;;;6126535;23;20496;-85
2024/03/30 03:53:32;;;;;;;4.90;4.40;;;12.00;99.90;;;;;;6120233;23;20397;-86
2024/03/30 03:56:11;;;;;;;5.10;4.60;;;11.90;99.90;;;;;;6164268;23;20415;-86
2024/03/30 03:59:15;;;;;;;6.40;5.80;;;12.00;99.90;;;;;;6129229;23;20402;-86
2024/03/30 04:01:50;;;;;;;5.10;4.60;;;11.80;99.90;;;;;;6106032;23;20439;-85
2024/03/30 04:04:31;;;;;;;5.67;5.10;;;11.60;99.90;;;;;;6105781;23;20434;-84
2024/03/30 04:06:59;;;;;;;6.30;5.20;;;11.60;99.90;;;;;;6105558;23;20435;-85
2024/03/30 04:09:29;;;;;;;5.57;5.07;;;11.80;99.90;;;;;;6105987;23;20742;-86
2024/03/30 04:12:12;;;;;;;5.30;4.80;;;11.60;99.90;;;;;;6134019;23;20393;-86
2024/03/30 04:14:47;;;;;;;5.33;4.83;;;11.50;99.90;;;;;;6129843;23;20407;-84
2024/03/30 04:17:23;;;;;;;5.40;4.90;;;11.80;99.90;;;;;;6099292;23;20753;-86
2024/03/30 04:19:49;;;;;;;4.83;4.30;;;11.90;99.90;;;;;;6106660;23;20437;-87
2024/03/30 04:22:15;;;;;;;6.57;5.73;;;11.80;99.90;;;;;;6157344;23;20407;-86
2024/03/30 04:24:49;;;;;;;5.83;5.23;;;11.80;99.90;;;;;;6131329;23;20407;-86
2024/03/30 04:27:33;;;;;;;5.13;4.50;;;11.50;99.90;;;;;;6109022;23;20597;-87
2024/03/30 04:30:13;;;;;;;5.10;4.60;;;11.60;99.90;;;;;;6133673;23;20426;-86
2024/03/30 04:32:54;;;;;;;6.10;5.30;;;11.70;99.90;;;;;;6125939;23;20482;-87
2024/03/30 04:36:25;;;;;;;5.50;5.00;;;11.80;99.90;;;;;;6139072;23;20407;-87
2024/03/30 04:38:59;;;;;;;5.30;4.60;;;11.80;99.90;;;;;;6140356;23;20411;-86
2024/03/30 04:41:53;;;;;;;5.07;4.57;;;12.00;99.90;;;;;;6129961;23;20914;-85
2024/03/30 04:44:46;;;;;;;5.80;5.00;;;11.90;99.90;;;;;;6107837;23;20727;-84
2024/03/30 04:47:27;;;;;;;5.80;5.20;;;12.00;99.90;;;;;;6093873;23;20400;-86
2024/03/30 04:50:06;;;;;;;6.23;5.30;;;11.80;99.90;;;;;;6101149;23;21327;-86
2024/03/30 04:55:33;;;;;;;5.53;5.03;;;11.90;99.90;;;;;;6167966;23;20467;-88
2024/03/30 04:58:12;;;;;;;4.43;4.03;;;11.70;99.90;;;;;;6179719;23;20477;-84
2024/03/30 05:01:20;;;;;;;5.63;5.13;;;11.70;99.90;;;;;;6146568;23;20426;-87
2024/03/30 05:04:18;;;;;;;7.00;4.90;;;11.80;99.90;;;;;;6082772;23;20406;-87
2024/03/30 05:07:02;;;;;;;6.60;5.70;;;11.70;99.90;;;;;;6161133;23;20438;-86
2024/03/30 05:12:20;;;;;;;6.60;5.40;;;11.90;99.90;;;;;;6187112;23;20444;-86
2024/03/30 05:15:01;;;;;;;6.10;5.47;;;11.70;99.90;;;;;;6134529;23;20409;-86
2024/03/30 05:17:50;;;;;;;5.80;4.97;;;11.70;99.90;;;;;;6135046;23;20401;-86
2024/03/30 05:20:54;;;;;;;6.53;4.87;;;11.70;99.90;;;;;;6127945;23;20422;-84
2024/03/30 05:24:05;;;;;;;5.90;4.93;;;11.70;99.90;;;;;;6128837;23;20405;-86
2024/03/30 05:27:00;;;;;;;5.93;5.30;;;11.90;99.90;;;;;;6039568;23;20504;-88
2024/03/30 05:29:38;;;;;;;5.63;4.87;;;11.90;99.90;;;;;;6101321;23;20418;-85
2024/03/30 05:32:35;;;;;;;11.23;5.53;;;11.90;99.90;;;;;;6102916;23;20478;-86
2024/03/30 05:36:08;;;;;;;6.70;5.33;;;11.80;99.90;;;;;;6127822;23;20466;-86
2024/03/30 05:39:36;;;;;;;6.23;4.30;;;11.70;99.90;;;;;;6104819;23;20419;-86
2024/03/30 05:42:16;;;;;;;5.40;4.83;;;11.70;99.90;;;;;;6033363;23;20414;-82
2024/03/30 05:47:36;;;;;;;4.97;4.50;;;11.80;99.90;;;;;;6017994;23;20411;-83
2024/03/30 05:50:21;;;;;;;5.23;4.73;;;11.90;99.90;;;;;;6021506;23;20425;-85
2024/03/30 05:55:54;;;;;;;4.50;3.97;;;11.80;99.90;;;;;;6180681;23;20521;-85
2024/03/30 05:59:05;;;;;;;5.50;4.10;;;11.80;99.90;;;;;;6151616;23;20402;-85
2024/03/30 06:01:47;;;;;;;5.17;4.20;;;11.70;99.90;;;;;;6123749;23;20407;-86
2024/03/30 06:05:04;;;;;;;5.53;4.30;;;11.80;99.90;;;;;;6098000;23;20903;-84
2024/03/30 06:07:49;;;;;;;6.73;3.40;;;12.10;99.90;;;;;;6118339;23;20403;-85
2024/03/30 06:10:34;;;;;;;6.80;3.90;;;12.10;99.90;;;;;;6125561;23;20486;-87
2024/03/30 06:16:35;;;;;;;4.00;3.67;;;12.10;99.90;;;;;;6149600;23;20470;-86
2024/03/30 06:19:05;;;;;;;7.33;3.73;;;12.20;99.90;;;;;;6123339;23;20529;-86
2024/03/30 06:21:52;;;;;;;4.60;3.13;;;12.10;99.90;;;;;;6123116;23;20462;-86
2024/03/30 06:24:56;;;;;;;4.10;3.70;;;12.30;99.90;;;;;;6116390;23;20390;-86
2024/03/30 06:30:55;;;;;;;4.93;2.97;;;12.00;99.90;;;;;;6065099;23;20425;-84
2024/03/30 06:33:48;;;;;;;3.87;2.90;;;11.90;99.90;;;;;;6097106;23;20403;-85
2024/03/30 06:36:17;;;;;;;3.63;2.40;;;12.20;99.90;;;;;;6098414;23;20931;-85
2024/03/30 06:45:33;;;;;;;3.20;2.90;;;12.50;99.90;;;;;;6124024;23;21002;-83
2024/03/30 06:48:36;;;;;;;3.27;2.63;;;12.50;99.90;;;;;;6133391;23;20413;-85
2024/03/30 06:51:38;;;;;;;3.90;2.90;;;12.50;99.90;;;;;;6106750;23;20704;-86
2024/03/30 06:54:13;;;;;;;5.20;3.07;;;;;;;;;;6107230;23;20413;-88
2024/03/30 06:57:16;;;;;;;3.83;3.10;;;12.40;99.90;;;;;;6117280;23;20578;-87
2024/03/30 07:00:09;;;;;;;;;;;;;;;;;;;;;
2024/03/30 07:06:22;;;;;;;4.70;3.27;;;;;;;;;;6128815;23;20446;-85
2024/03/30 07:08:59;;;;;;;3.93;3.03;;;;;;;;;;6124639;23;20403;-83
2024/03/30 07:11:36;;;;;;;4.23;3.93;;;;;;;;;;6105003;23;21022;-87
2024/03/30 07:14:14;;;;;;;3.90;3.17;;;;;;;;;;6125831;23;20398;-85
2024/03/30 07:16:44;;;;;;;7.40;3.80;;;;;;;;;;6148763;23;20462;-87
2024/03/30 07:19:11;;;;;;;3.07;2.87;;;;;;;;;;6148459;23;20494;-85
2024/03/30 07:21:51;;;;;;;6.50;3.83;;;12.70;99.90;;;;;;6145700;23;20466;-87
2024/03/30 07:27:39;;;;;;;;;;;;;;;;;;;;;
2024/03/30 07:30:09;;;;;;;4.17;3.77;;;;;;;;;;6135567;23;20419;-86
2024/03/30 07:32:46;;;;;;;4.50;3.60;;;;;;;;;;6149408;23;20441;-87
2024/03/30 07:35:44;;;;;;;9.03;3.97;;;;;;;;;;6158225;23;20402;-87
2024/03/30 07:38:43;;;;;;;;;;;;;;;;;;;;;
2024/03/30 07:41:21;;;;;;;4.83;3.70;;;;;;;;;;6129663;23;20406;-85
2024/03/30 07:44:06;;;;;;;4.87;4.37;;;;;;;;;;6133759;23;20474;-84
2024/03/30 07:46:38;;;;;;;5.53;4.90;;;;;;;;;;6141161;23;20485;-86
2024/03/30 07:49:14;;;;;;;4.80;4.30;;;;;;;;;;6152271;23;20482;-85
2024/03/30 07:51:57;;;;;;;6.23;3.63;;;;;;;;;;6147366;23;20467;-86
2024/03/30 07:54:37;;;;;;;5.20;3.80;;;;;;;;;;6142500;23;20425;-86
2024/03/30 07:57:38;;;;;;;6.23;3.83;;;;;;;;;;6131942;23;20423;-85
2024/03/30 08:00:11;;;;;;;4.50;3.10;;;;;;;;;;6115972;23;20427;-86
2024/03/30 08:02:48;;;;;;;6.00;3.60;;;;;;;;;;6128217;23;20407;-84
2024/03/30 08:05:29;;;;;;;4.37;3.60;;;;;;;;;;6125981;23;20451;-83
2024/03/30 08:08:09;;;;;;;7.73;4.03;;;;;;;;;;6110420;23;20407;-85
2024/03/30 08:10:53;;;;;;;4.87;3.43;;;;;;;;;;6130205;23;20423;-84
2024/03/30 08:17:12;;;;;;;;;;;;;;;;;;;;;
2024/03/30 08:20:14;;;;;;;3.33;2.73;;;13.50;99.90;;;;;;6116918;23;20435;-82
2024/03/30 08:26:53;;;;;;;4.10;3.00;;;13.80;99.90;;;;;;5994542;23;20440;-84
2024/03/30 08:30:11;;;;;;;5.00;2.93;;;14.00;99.90;;;;;;5954830;23;21139;-83
2024/03/30 08:36:45;;;;;;;;;;;;;;;;;;;;;
2024/03/30 08:39:54;;;;;;;3.27;2.87;;;14.30;99.90;;;;;;6126644;23;20427;-85
2024/03/30 08:42:39;;;;;;;6.50;2.87;;;14.40;99.90;;;;;;6116261;23;20478;-85
2024/03/30 08:49:37;;;;;;;6.33;2.10;;;;;;;;;;6059049;23;20389;-83
2024/03/30 08:52:41;;;;;;;5.00;2.10;;;14.80;99.90;;;;;;5942669;24;20397;-86
2024/03/30 08:55:40;;;;;;;7.57;2.47;;;;;;;;;;5962456;23;20427;-83
2024/03/30 08:58:12;;;;;;;6.63;1.97;;;;;;;;;;5982416;23;20438;-85
2024/03/30 09:00:59;;;;;;;10.60;2.60;;;;;;;;;;6042623;23;20431;-87
2024/03/30 09:07:31;;;;;;;7.63;1.70;;;;;;;;;;6000634;23;20465;-85
2024/03/30 09:14:16;;;;;;;6.53;1.77;;;;;;;;;;5987522;23;20455;-81
2024/03/30 09:17:15;;;;;;;2.50;1.60;;;;;;;;;;6023627;23;20477;-84
2024/03/30 09:34:10;;;;;;;4.93;1.80;;;;;;;;;;6039068;23;20369;-86
2024/03/30 09:40:27;;;;;;;3.43;1.53;;;;;;;;;;6095188;23;20520;-84
2024/03/30 09:43:07;;;;;;;;;;;;;;;;;;;;;
2024/03/30 09:49:56;;;;;;;7.20;2.77;;;;;;;;;;6160918;23;20406;-85
2024/03/30 09:53:09;;;;;;;9.33;3.40;;;;;;;;;;6100087;23;20399;-86
2024/03/30 10:04:08;;;;;;;12.83;2.90;;;15.80;95.40;;;;;;6115892;23;20425;-87
2024/03/30 10:07:30;;;;;;;;;;;;;;;;;;;;;
2024/03/30 10:10:21;;;;;;;7.03;2.10;;;;;;;;;;6128844;23;20438;-88
2024/03/30 10:13:41;;;;;;;6.50;2.43;;;;;;;;;;6152458;23;21102;-88
2024/03/30 10:26:41;;;;;;;11.13;2.53;;;;;;;;;;6154586;23;20470;-87
2024/03/30 10:29:46;;;;;;;10.60;2.20;;;;;;;;;;6144000;23;20402;-87
2024/03/30 10:32:54;;;;;;;;;;;;;;;;;;;;;
2024/03/30 10:36:01;;;;;;;4.23;1.90;;;;;;;;;;6073589;23;20884;-87
2024/03/30 10:42:22;;;;;;;14.93;2.50;;;;;;;;;;6007062;23;20398;-86
2024/03/30 10:45:02;;;;;;;6.53;2.20;;;;;;;;;;5981325;24;20488;-86
2024/03/30 10:48:07;;;;;;;7.27;2.33;;;;;;;;;;5939443;24;20369;-86
2024/03/30 11:11:58;;;;;;;13.27;3.10;;;;;;;;;;6196873;23;20430;-87
2024/03/30 11:14:59;;;;;;;16.20;3.70;;;;;;;;;;6169502;23;20418;-87
2024/03/30 11:18:36;;;;;;;;;;;;;;;;;;;;;
2024/03/30 11:22:08;;;;;;;;;;;;;;;;;;;;;
2024/03/30 11:32:43;;;;;;;;;;;;;;;;;;;;;
2024/03/30 11:35:57;;;;;;;12.13;3.40;;;;;;;;;;6047351;23;20406;-86
2024/03/30 11:49:50;;;;;;;19.60;5.63;;;;;;;;;;6168239;23;20413;-87
2024/03/30 12:00:13;;;;;;;;;;;;;;;;;;;;;
2024/03/30 12:28:42;;;;;;;18.40;4.83;;;;;;;;;;6110125;23;20453;-88
2024/03/30 12:32:21;;;;;;;;;;;;;;;;;;;;;
2024/03/30 12:53:21;;;;;;;19.60;4.60;;;;;;;;;;6106222;23;20400;-88
2024/03/30 13:33:33;;;;;;;14.83;2.80;;;;;;;;;;6193051;23;20429;-87
2024/03/30 13:39:35;;;;;;;;;;;;;;;;;;;;;
2024/03/30 13:49:03;;;;;;;13.77;2.70;;;;;;;;;;6212335;23;20377;-83
2024/03/30 13:55:57;;;;;;;16.30;2.50;;;;;;;;;;6019500;23;20398;-86
2024/03/30 14:27:31;;;;;;;3.70;1.63;;;;;;;;;;6119185;23;20491;-86
2024/03/30 14:34:05;;;;;;;9.27;1.43;;;;;;;;;;6101099;23;20429;-84
2024/03/30 14:40:53;;;;;;;3.40;1.13;;;;;;;;;;6102984;23;20500;-86
2024/03/30 14:43:37;;;;;;;;;;;;;;;;;;;;;
2024/03/30 14:54:52;;;;;;;2.40;1.57;;;;;;;;;;6166202;23;20472;-87
2024/03/30 14:57:30;;;;;;;7.10;2.23;;;;;;;;;;6136098;23;20421;-86
2024/03/30 15:00:02;;;;;;;9.13;1.80;;;;;;;;;;6136076;23;20591;-86
2024/03/30 15:03:01;;;;;;;3.53;1.07;;;;;;;;;;6168709;23;20471;-85
2024/03/30 15:18:28;;;;;;;5.20;1.50;;;;;;;;;;6135524;23;20359;-86
2024/03/30 15:20:57;;;;;;;5.80;1.30;;;;;;;;;;6121525;23;20498;-84
2024/03/30 15:24:02;;;;;;;4.30;0.93;;;;;;;;;;6072114;23;20488;-85
2024/03/30 15:26:56;;;;;;;1.07;0.80;;;;;;;;;;6098136;23;20443;-84
2024/03/30 15:32:09;;;;;;;3.27;0.93;;;;;;;;;;6113143;23;20438;-86
2024/03/30 15:33:03;;;;;;;4.20;0.97;;;;;;;;;;6110359;23;20421;-86
2024/03/30 15:36:10;;;;;;;1.10;1.00;;;;;;;;;;6133454;23;20374;-84
2024/03/30 15:39:05;;;;;;;6.73;1.20;;;;;;;;;;6128054;23;20398;-85
2024/03/30 15:41:40;;;;;;;3.53;1.00;;;;;;;;;;6117758;23;20434;-86
2024/03/30 15:44:21;;;;;;;4.63;1.60;;;;;;;;;;6119540;23;20414;-84
2024/03/30 15:46:49;;;;;;;0.93;0.87;;;;;;;;;;6107418;23;20457;-83
2024/03/30 15:56:21;;;;;;;7.63;1.27;;;;;;;;;;6153025;23;20352;-89
2024/03/30 16:05:55;;;;;;;2.07;1.00;;;;;;;;;;6155245;23;20367;-86
2024/03/30 16:23:25;;;;;;;1.47;1.30;;;;;;;;;;6104751;23;20888;-85
2024/03/30 16:26:09;;;;;;;3.03;1.60;;;;;;;;;;6048204;23;20452;-84
2024/03/30 16:32:24;;;;;;;2.17;1.43;;;;;;;;;;6108178;23;20426;-85
2024/03/30 16:35:02;;;;;;;3.53;1.60;;;;;;;;;;6102731;23;20400;-85
2024/03/30 16:37:53;;;;;;;1.93;1.53;;;;;;;;;;6112834;23;20415;-86
2024/03/30 16:40:46;;;;;;;2.03;1.73;;;;;;;;;;6081865;23;20432;-83
2024/03/30 16:44:05;;;;;;;2.17;1.50;;;;;;;;;;6100931;23;20427;-87
2024/03/30 16:53:08;;;;;;;3.80;2.00;;;;;;;;;;6095700;23;20917;-86
2024/03/30 16:56:07;;;;;;;;;;;;;;;;;;;;;
2024/03/30 17:02:50;;;;;;;4.70;2.80;;;;;;;;;;6115021;23;20396;-85
2024/03/30 17:05:17;;;;;;;7.17;3.60;;;;;;;;;;6079491;23;20410;-85
2024/03/30 17:07:50;;;;;;;5.93;2.93;;;;;;;;;;6106489;23;20436;-85
2024/03/30 17:10:38;;;;;;;;;;;;;;;;;;;;;
2024/03/30 17:16:23;;;;;;;2.80;1.97;;;;;;;;;;6108724;23;20414;-85
2024/03/30 17:19:07;;;;;;;;;;;;;;;;;;;;;
2024/03/30 17:21:44;;;;;;;3.33;2.40;;;;;;;;;;6109506;23;20796;-86
2024/03/30 17:24:28;;;;;;;3.30;2.27;;;;;;;;;;6064501;23;20408;-86
2024/03/30 17:27:16;;;;;;;4.43;2.20;;;;;;;;;;6096420;23;20456;-88
2024/03/30 17:30:14;;;;;;;2.60;2.10;;;;;;;;;;6082545;23;21213;-85
2024/03/30 17:32:49;;;;;;;3.53;2.07;;;;;;;;;;6124705;23;20412;-84
2024/03/30 17:35:25;;;;;;;5.00;1.77;;;;;;;;;;6080408;23;20972;-84
2024/03/30 17:37:52;;;;;;;3.33;1.80;;;;;;;;;;6077287;23;20898;-85
2024/03/30 17:40:24;;;;;;;1.73;1.60;;;;;;;;;;6103278;23;20424;-84
2024/03/30 17:42:56;;;;;;;2.60;2.37;;;;;;;;;;6079876;23;20400;-86
2024/03/30 17:45:35;;;;;;;3.80;2.67;;;;;;;;;;6064550;23;20412;-85
2024/03/30 17:48:36;;;;;;;3.23;2.50;;;;;;;;;;6105134;23;20430;-88
2024/03/30 17:51:15;;;;;;;6.60;4.00;;;;;;;;;;6110581;23;20424;-87
2024/03/30 17:53:51;;;;;;;4.87;2.90;;;;;;;;;;6081083;23;20433;-86
2024/03/30 17:57:13;;;;;;;4.17;2.30;;;;;;;;;;6103521;23;20400;-86
2024/03/30 18:00:00;;;;;;;2.70;1.80;;;;;;;;;;6108345;23;20438;-86
2024/03/30 18:03:01;;;;;;;2.60;2.33;;;;;;;;;;6108711;23;20424;-86
2024/03/30 18:05:30;;;;;;;3.57;2.57;;;;;;;;;;6085373;23;20407;-88
2024/03/30 18:08:09;;;;;;;3.03;2.30;;;;;;;;;;6091778;23;20466;-84
2024/03/30 18:11:03;;;;;;;6.03;2.50;;;;;;;;;;6119104;23;20439;-85
2024/03/30 18:13:33;;;;;;;1.63;1.53;;;;;;;;;;6100462;23;20464;-87
2024/03/30 18:16:37;;;;;;;;;;;;;;;;;;;;;
2024/03/30 18:21:44;;;;;;;9.33;5.13;;;;;;;;;;6169745;23;20449;-84
2024/03/30 18:24:26;;;;;;;5.90;3.87;;;;;;;;;;6137773;23;20458;-85
2024/03/30 18:35:44;;;;;;;6.30;3.97;;;;;;;;;;6164672;23;20415;-87
2024/03/30 18:42:17;;;;;;;4.23;2.30;;;;;;;;;;6058125;23;20408;-89
2024/03/30 18:45:25;;;;;;;2.87;2.00;;;;;;;;;;6104094;23;20463;-84
2024/03/30 18:51:26;;;;;;;2.73;2.53;;;;;;;;;;6002560;24;20428;-84
2024/03/30 18:54:08;;;;;;;3.70;2.80;;;;;;;;;;6025665;23;20412;-84
2024/03/30 18:57:25;;;;;;;;;;;;;;;;;;;;;
2024/03/30 19:00:27;;;;;;;3.50;3.00;;;;;;;;;;6139642;23;20432;-85
2024/03/30 19:03:07;;;;;;;3.73;3.10;;;;;;;;;;6111214;23;20412;-86
2024/03/30 19:05:48;;;;;;;3.40;3.10;;;;;;;;;;6114661;23;20437;-86
2024/03/30 19:08:44;;;;;;;8.27;3.20;;;;;;;;;;6113765;23;20396;-86
2024/03/30 19:11:30;;;;;;;3.70;3.40;;;;;;;;;;6168722;23;20459;-87
2024/03/30 19:14:39;;;;;;;4.87;4.40;;;;;;;;;;6173231;23;20405;-87
2024/03/30 19:17:26;;;;;;;4.53;3.90;;;;;;;;;;6174180;23;20400;-85
2024/03/30 19:32:36;;;;;;;2.50;2.00;;;;;;;;;;6095407;23;20413;-86
2024/03/30 19:35:53;;;;;;;;;;;;;;;;;;;;;
2024/03/30 19:38:29;;;;;;;2.87;2.50;;;;;;;;;;6164191;23;20406;-84
2024/03/30 19:44:34;;;;;;;2.40;2.20;;;;;;;;;;6162185;23;20401;-83
2024/03/30 19:50:29;;;;;;;2.50;2.30;;;;;;;;;;6128812;23;21008;-88
2024/03/30 19:54:03;;;;;;;;;;;;;;;;;;;;;
2024/03/30 20:02:49;;;;;;;2.73;2.53;;;;;;;;;;6129319;23;20429;-84
2024/03/30 20:05:26;;;;;;;3.00;2.77;;;;;;;;;;6105740;23;20887;-84
2024/03/30 20:11:57;;;;;;;3.13;2.70;;;;;;;;;;6142570;23;20370;-84
2024/03/30 20:24:54;;;;;;;3.60;2.93;;;;;;;;;;6146451;23;20407;-85
2024/03/30 20:27:45;;;;;;;9.33;6.97;;;;;;;;;;6135745;23;20418;-85
2024/03/30 20:30:42;;;;;;;;;;;;;;;;;;;;;
2024/03/30 20:34:08;;;;;;;4.30;3.00;;;;;;;;;;6138678;23;20369;-84
2024/03/30 20:37:04;;;;;;;5.30;4.40;;;;;;;;;;6161137;23;20411;-85
2024/03/30 20:43:21;;;;;;;2.77;2.20;;;;;;;;;;6115031;23;20405;-84
2024/03/30 20:46:07;;;;;;;2.50;2.30;;;;;;;;;;6163511;23;20447;-85
2024/03/30 20:48:53;;;;;;;2.43;2.23;;;;;;;;;;6104468;23;20403;-83
2024/03/30 20:51:35;;;;;;;1.83;1.73;;;;;;;;;;6137132;23;20422;-84
2024/03/30 20:54:40;;;;;;;2.50;2.30;;;;;;;;;;6157100;23;20399;-88
2024/03/30 21:00:22;;;;;;;5.77;3.03;;;;;;;;;;6151318;23;20493;-88
2024/03/30 21:02:54;;;;;;;3.80;2.63;;;;;;;;;;6135906;23;20457;-83
2024/03/30 21:05:26;;;;;;;3.30;3.00;;;;;;;;;;6175775;23;20466;-85
2024/03/30 21:08:02;;;;;;;2.97;2.77;;;;;;;;;;6165136;23;20414;-84
2024/03/30 21:10:36;;;;;;;3.17;2.97;;;;;;;;;;6163403;23;20426;-84
2024/03/30 21:13:28;;;;;;;3.03;2.73;;;;;;;;;;6109708;23;20408;-85
2024/03/30 21:16:12;;;;;;;3.63;3.00;;;;;;;;;;6079800;23;20405;-83
2024/03/30 21:18:47;;;;;;;4.63;3.70;;;;;;;;;;6087612;23;20408;-86
2024/03/30 21:21:46;;;;;;;3.90;3.20;;;;;;;;;;6145243;23;20364;-87
2024/03/30 21:24:46;;;;;;;3.00;2.50;;;;;;;;;;6146655;23;20403;-84
2024/03/30 21:27:57;;;;;;;4.90;4.40;;;;;;;;;;6139909;23;20442;-84
2024/03/30 21:30:45;;;;;;;3.70;3.20;;;;;;;;;;6166474;23;20427;-84
2024/03/30 21:33:36;;;;;;;2.93;2.73;;;;;;;;;;6145520;23;20422;-85
2024/03/30 21:43:00;;;;;;;4.03;3.63;;;;;;;;;;6167810;23;20416;-86
2024/03/30 21:46:10;;;;;;;3.70;3.30;;;;;;;;;;6110129;23;20455;-84
2024/03/30 21:52:18;;;;;;;3.67;3.33;;;;;;;;;;6163741;23;20439;-85
2024/03/30 21:55:54;;;;;;;;;;;;;;;;;;;;;
2024/03/30 21:58:48;;;;;;;5.30;3.90;;;;;;;;;;6015143;23;20436;-83
2024/03/30 22:08:56;;;;;;;;;;;;;;;;;;;;;
2024/03/30 22:11:40;;;;;;;4.63;4.23;;;;;;;;;;6123022;23;20456;-87
2024/03/30 22:15:01;;;;;;;6.10;4.53;;;;;;;;;;6131248;23;20437;-88
2024/03/30 22:30:49;;;;;;;5.33;4.83;;;;;;;;;;6186114;23;20440;-84
2024/03/30 22:33:45;;;;;;;5.50;4.90;;;;;;;;;;6157857;23;20482;-83
2024/03/30 22:36:51;;;;;;;4.83;4.40;;;;;;;;;;6211784;23;20377;-84
2024/03/30 22:39:50;;;;;;;4.70;3.97;;;;;;;;;;6160542;23;20501;-85
2024/03/30 22:42:31;;;;;;;4.47;3.77;;;;;;;;;;6158561;23;20479;-83
2024/03/30 22:45:37;;;;;;;;;;;;;;;;;;;;;
2024/03/30 22:48:43;;;;;;;4.20;3.77;;;;;;;;;;6197762;23;20465;-84
2024/03/30 22:54:03;;;;;;;5.50;4.63;;;;;;;;;;6176469;23;20860;-84
2024/03/30 23:00:49;;;;;;;6.10;4.80;;;;;;;;;;6203014;23;20428;-84
2024/03/30 23:03:52;;;;;;;4.57;4.17;;;;;;;;;;6146167;23;20406;-84
2024/03/30 23:06:43;;;;;;;6.07;4.57;;;;;;;;;;6173913;23;20466;-85
2024/03/30 23:09:30;;;;;;;4.30;3.90;;;;;;;;;;6148547;23;20430;-83
2024/03/30 23:12:25;;;;;;;4.93;4.43;;;;;;;;;;6149161;23;20468;-84
2024/03/30 23:14:58;;;;;;;4.83;4.40;;;;;;;;;;6151403;23;20402;-82
2024/03/30 23:17:43;;;;;;;6.30;4.03;;;;;;;;;;6087713;23;20408;-85
2024/03/30 23:21:05;;;;;;;4.77;4.27;;;;;;;;;;6180739;23;20401;-85
2024/03/30 23:24:11;;;;;;;3.97;3.67;;;;;;;;;;6038771;23;20467;-86
2024/03/30 23:30:24;;;;;;;4.70;4.20;;;;;;;;;;6045582;23;20438;-86
2024/03/30 23:33:24;;;;;;;5.97;4.10;;;;;;;;;;6025918;23;20488;-88
2024/03/30 23:36:13;;;;;;;6.20;5.60;;;;;;;;;;5991195;23;20911;-87
2024/03/30 23:38:50;;;;;;;6.13;5.07;;;;;;;;;;5995769;23;20422;-86
2024/03/30 23:41:47;;;;;;;5.20;4.70;;;;;;;;;;6020396;23;20399;-87
2024/03/30 23:44:32;;;;;;;8.13;5.70;;;;;;;;;;5997415;23;20492;-86
2024/03/30 23:47:23;;;;;;;5.83;5.00;;;;;;;;;;6036502;23;20490;-87
2024/03/30 23:50:47;;;;;;;6.43;5.30;;;;;;;;;;6046087;23;20469;-86
2024/03/30 23:56:44;;;;;;;7.00;6.10;;;;;;;;;;6172083;23;20410;-84
2024/03/30 23:59:51;;;;;;;6.97;5.50;;;;;;;;;;6179114;23;21046;-84
